메인 페이지
METAR-TAF:

METAR-TAF

공항 :

몬트리올 피에르 엘리오트 트뤼도 국제공항

몬트리올 트뤼도, 퀘벡, 캐나다

위도: 45-28N, 경도: 073-45W, 고도: 31m

현재 날씨관측

예보는 1 시간 5분 전, 01:00시(UTC)에 발표되었습니다.
동북동8kt
온도 11°C
습도 47%
기압 1033 hPa
시정: 24.1km
고도 24000ft 상공 구름 조금

METAR: CYUL 250100Z 06008KT 15SM FEW240 11/M00 A3049 RMK CI2 SLP327

시각: 22:05 (02:05 UTC)

예보

예보는 2 시간 27분 전, 23:38시(UTC)에 발표되었습니다.
예보 대상 시간: 25일 00시부터 25일 24시까지 (UTC)
동북동10kt
시정: 10km
고도 18000ft 상공 구름 조금
고도 24000ft 상공 구름 보통
전환 중
25일 03시부터 25일 05시까지 (UTC)
남동10kt
25일 1100시부터 (UTC)
남남동15kt
시정: 10km
고도 4000ft 상공 구름 많음
고도 18000ft 상공 흐림
25일 1300시부터 (UTC)
남남동15kt, 순간 최대 풍속 25kt
시정: 10km
고도 2500ft 상공 흐림
약한비
25일 1600시부터 (UTC)
남남동15kt, 순간 최대 풍속 25kt
시정: 6.4km
고도 1200ft 상공 구름 많음
고도 2000ft 상공 흐림
약한비, 박무
25일 2000시부터 (UTC)
남남동15kt, 순간 최대 풍속 25kt
시정: 10km
고도 1500ft 상공 구름 보통
고도 3000ft 상공 흐림
약한소나기

TAF: CYUL 242338Z 2500/2524 07010KT P6SM FEW180 SCT240 BECMG 2503/2505 14010KT FM251100 15015KT P6SM BKN040 OVC180 FM251300 16015G25KT P6SM -RA OVC025 FM251600 16015G25KT 4SM -RA BR BKN012 OVC020 FM252000 16015G25KT P6SM -SHRA SCT015 OVC030 RMK NXT FCST BY 250300Z

4,000개 이상의 공항 관측 자료 및 예보 (METAR 및 TAF 보고).

지도상에서 검색 가능한 기상관측소가 노란 점과 빨간 점으로 표시되어 있습니다.

기상관측소 명을 보려면 표시 위로 마우스를 이동하세요.

날씨 관측과 예보를 보려면 클릭하세요.

지도 변경 : 확대하려면 엑스 표시가 있는 녹색 버튼, 축소하려면 빼기 표시가 있는 녹색 버튼, 다음 페이지의 지도를 보려면 녹색 화살표를 클릭하세요.


METAR-TAF: